createdAt,value
2023-02-14T00:00:37.626Z,1013.13
2023-02-14T00:01:37.605Z,1013.12
2023-02-14T00:02:37.639Z,1013.11
2023-02-14T00:03:37.568Z,1013.08
2023-02-14T00:04:37.621Z,1013.06
2023-02-14T00:05:37.530Z,1013.13
2023-02-14T00:06:37.515Z,1013.13
2023-02-14T00:07:37.487Z,1013.09
2023-02-14T00:08:37.468Z,1013.14
2023-02-14T00:09:37.445Z,1013.13
2023-02-14T00:10:37.429Z,1013.14
2023-02-14T00:11:37.410Z,1013.16
2023-02-14T00:12:37.401Z,1013.19
2023-02-14T00:13:37.369Z,1013.13
2023-02-14T00:14:37.356Z,1013.13
2023-02-14T00:15:37.335Z,1013.09
2023-02-14T00:16:37.310Z,1013.12
2023-02-14T00:17:37.287Z,1013.09
2023-02-14T00:18:37.272Z,1013.12
2023-02-14T00:19:37.251Z,1013.13
2023-02-14T00:20:37.232Z,1013.13
2023-02-14T00:21:37.207Z,1013.10
2023-02-14T00:22:37.192Z,1013.12
2023-02-14T00:23:37.174Z,1013.11
2023-02-14T00:24:37.152Z,1013.12
2023-02-14T00:25:37.130Z,1013.11
2023-02-14T00:26:37.110Z,1013.16
2023-02-14T00:27:37.104Z,1013.13
2023-02-14T00:28:37.071Z,1013.12
2023-02-14T00:29:37.049Z,1013.08
2023-02-14T00:30:37.142Z,1013.08
2023-02-14T00:31:37.221Z,1013.04
2023-02-14T00:32:36.987Z,1013.06
2023-02-14T00:33:36.979Z,1013.03
2023-02-14T00:34:36.951Z,1013.02
2023-02-14T00:35:36.931Z,1013.03
2023-02-14T00:36:36.912Z,1013.06
2023-02-14T00:37:36.896Z,1012.98
2023-02-14T00:38:36.869Z,1013.00
2023-02-14T00:39:36.870Z,1012.98
2023-02-14T00:40:36.828Z,1012.98
2023-02-14T00:41:36.810Z,1012.98
2023-02-14T00:42:36.800Z,1012.96
2023-02-14T00:43:36.767Z,1012.94
2023-02-14T00:44:36.753Z,1012.95
2023-02-14T00:45:36.762Z,1012.93
2023-02-14T00:46:36.708Z,1012.94
2023-02-14T00:47:36.702Z,1012.94
2023-02-14T00:48:36.669Z,1012.96
2023-02-14T00:49:36.661Z,1012.95
2023-02-14T00:50:36.630Z,1012.95
2023-02-14T00:51:36.611Z,1012.92
2023-02-14T00:52:36.590Z,1012.96
2023-02-14T00:53:36.572Z,1012.90
2023-02-14T00:54:36.551Z,1012.90
2023-02-14T00:55:36.535Z,1012.91
2023-02-14T00:56:36.515Z,1012.92
2023-02-14T00:57:36.491Z,1012.88
2023-02-14T00:58:36.471Z,1012.91
2023-02-14T00:59:36.457Z,1012.94
2023-02-14T01:00:36.496Z,1012.94
2023-02-14T01:01:36.412Z,1012.96
2023-02-14T01:02:36.451Z,1012.98
2023-02-14T01:03:36.393Z,1012.97
2023-02-14T01:04:36.350Z,1012.97
2023-02-14T01:05:36.345Z,1012.96
2023-02-14T01:06:36.330Z,1012.99
2023-02-14T01:07:36.307Z,1012.98
2023-02-14T01:08:36.278Z,1013.00
2023-02-14T01:09:36.250Z,1012.94
2023-02-14T01:10:36.228Z,1013.01
2023-02-14T01:11:36.208Z,1012.99
2023-02-14T01:12:36.188Z,1013.00
2023-02-14T01:13:36.172Z,1013.00
2023-02-14T01:14:36.155Z,1013.03
2023-02-14T01:15:36.137Z,1012.99
2023-02-14T01:16:36.155Z,1012.99
2023-02-14T01:17:36.106Z,1013.01
2023-02-14T01:18:36.540Z,1012.99
2023-02-14T01:19:36.062Z,1012.98
2023-02-14T01:20:36.028Z,1012.99
2023-02-14T01:21:36.061Z,1013.02
2023-02-14T01:22:36.008Z,1013.03
2023-02-14T01:23:35.996Z,1013.03
2023-02-14T01:24:35.951Z,1013.04
2023-02-14T01:25:35.943Z,1013.02
2023-02-14T01:26:35.908Z,1013.04
2023-02-14T01:27:35.893Z,1013.05
2023-02-14T01:28:35.868Z,1013.04
2023-02-14T01:29:35.858Z,1013.10
2023-02-14T01:30:35.936Z,1013.10
2023-02-14T01:31:36.002Z,1013.07
2023-02-14T01:32:35.795Z,1013.05
2023-02-14T01:33:35.802Z,1013.05
2023-02-14T01:34:35.751Z,1013.00
2023-02-14T01:35:35.741Z,1012.98
2023-02-14T01:36:35.710Z,1012.98
2023-02-14T01:37:35.697Z,1013.00
2023-02-14T01:38:35.673Z,1013.01
2023-02-14T01:39:35.677Z,1013.01
2023-02-14T01:40:35.636Z,1013.03
2023-02-14T01:41:35.616Z,1012.98
2023-02-14T01:42:35.590Z,1012.97
2023-02-14T01:43:35.576Z,1012.98
2023-02-14T01:44:35.551Z,1012.94
2023-02-14T01:45:35.544Z,1012.93
2023-02-14T01:46:35.515Z,1012.94
2023-02-14T01:47:35.521Z,1012.94
2023-02-14T01:48:35.478Z,1012.91
2023-02-14T01:49:35.471Z,1012.93
2023-02-14T01:50:35.440Z,1012.89
2023-02-14T01:51:35.419Z,1012.87
2023-02-14T01:52:35.407Z,1012.89
2023-02-14T01:53:35.377Z,1012.86
2023-02-14T01:54:35.387Z,1012.85
2023-02-14T01:55:35.333Z,1012.85
2023-02-14T01:56:35.351Z,1012.90
2023-02-14T01:57:35.297Z,1012.85
2023-02-14T01:58:35.280Z,1012.87
2023-02-14T01:59:35.258Z,1012.87
2023-02-14T02:00:35.241Z,1012.93
2023-02-14T02:01:35.257Z,1012.91
2023-02-14T02:02:35.251Z,1012.98
2023-02-14T02:03:35.185Z,1012.97
2023-02-14T02:04:35.152Z,1012.95
2023-02-14T02:05:35.138Z,1012.92
2023-02-14T02:06:35.120Z,1012.88
2023-02-14T02:07:35.103Z,1012.91
2023-02-14T02:08:35.075Z,1012.86
2023-02-14T02:09:35.059Z,1012.91
2023-02-14T02:10:35.035Z,1012.91
2023-02-14T02:11:35.017Z,1012.90
2023-02-14T02:12:34.994Z,1012.89
2023-02-14T02:13:34.982Z,1012.88
2023-02-14T02:14:34.951Z,1012.90
2023-02-14T02:15:34.934Z,1012.91
2023-02-14T02:16:34.962Z,1012.88
2023-02-14T02:17:34.895Z,1012.88
2023-02-14T02:18:34.873Z,1012.88
2023-02-14T02:19:34.860Z,1012.93
2023-02-14T02:20:34.854Z,1012.88
2023-02-14T02:21:34.812Z,1012.86
2023-02-14T02:22:34.813Z,1012.86
2023-02-14T02:23:34.801Z,1012.90
2023-02-14T02:24:34.808Z,1012.88
2023-02-14T02:25:34.731Z,1012.89
2023-02-14T02:26:34.716Z,1012.93
2023-02-14T02:27:34.700Z,1012.91
2023-02-14T02:28:34.701Z,1012.88
2023-02-14T02:29:34.653Z,1012.87
2023-02-14T02:30:34.837Z,1012.91
2023-02-14T02:31:34.761Z,1012.85
2023-02-14T02:32:34.595Z,1012.88
2023-02-14T02:33:34.574Z,1012.88
2023-02-14T02:34:34.555Z,1012.89
2023-02-14T02:35:34.572Z,1012.92
2023-02-14T02:36:34.513Z,1012.90
2023-02-14T02:37:34.489Z,1012.93
2023-02-14T02:38:34.489Z,1012.92
2023-02-14T02:39:34.500Z,1012.96
2023-02-14T02:40:34.432Z,1012.89
2023-02-14T02:41:34.430Z,1012.92
2023-02-14T02:42:34.396Z,1012.92
2023-02-14T02:43:34.382Z,1012.93
2023-02-14T02:44:34.357Z,1012.91
2023-02-14T02:45:34.335Z,1012.89
2023-02-14T02:46:34.314Z,1012.88
2023-02-14T02:47:34.303Z,1012.91
2023-02-14T02:48:34.271Z,1012.88
2023-02-14T02:49:34.257Z,1012.86
2023-02-14T02:50:34.235Z,1012.85
2023-02-14T02:51:34.213Z,1012.88
2023-02-14T02:52:34.196Z,1012.90
2023-02-14T02:53:34.183Z,1012.91
2023-02-14T02:54:34.152Z,1012.88
2023-02-14T02:55:34.170Z,1012.89
2023-02-14T02:56:34.117Z,1012.92
2023-02-14T02:57:34.091Z,1012.90
2023-02-14T02:58:34.072Z,1012.91
2023-02-14T02:59:34.055Z,1012.93
2023-02-14T03:00:34.033Z,1012.88
2023-02-14T03:01:34.111Z,1012.87
2023-02-14T03:02:34.003Z,1012.87
2023-02-14T03:03:33.976Z,1012.89
2023-02-14T03:04:33.970Z,1012.82
2023-02-14T03:05:33.932Z,1012.86
2023-02-14T03:06:33.978Z,1012.85
2023-02-14T03:07:33.892Z,1012.85
2023-02-14T03:08:33.896Z,1012.86
2023-02-14T03:09:33.856Z,1012.83
2023-02-14T03:10:33.832Z,1012.80
2023-02-14T03:11:33.825Z,1012.81
2023-02-14T03:12:33.790Z,1012.83
2023-02-14T03:13:33.775Z,1012.84
2023-02-14T03:14:33.759Z,1012.80
2023-02-14T03:15:33.780Z,1012.81
2023-02-14T03:16:33.714Z,1012.78
2023-02-14T03:17:33.697Z,1012.76
2023-02-14T03:18:33.674Z,1012.79
2023-02-14T03:19:33.657Z,1012.77
2023-02-14T03:20:33.675Z,1012.77
2023-02-14T03:21:33.614Z,1012.77
2023-02-14T03:22:33.601Z,1012.74
2023-02-14T03:23:33.576Z,1012.78
2023-02-14T03:24:33.555Z,1012.77
2023-02-14T03:25:33.539Z,1012.76
2023-02-14T03:26:33.513Z,1012.79
2023-02-14T03:27:33.510Z,1012.75
2023-02-14T03:28:33.474Z,1012.79
2023-02-14T03:29:33.461Z,1012.82
2023-02-14T03:30:33.480Z,1012.80
2023-02-14T03:31:33.543Z,1012.83
2023-02-14T03:32:33.392Z,1012.84
2023-02-14T03:33:33.376Z,1012.89
2023-02-14T03:34:33.357Z,1012.85
2023-02-14T03:35:33.331Z,1012.89
2023-02-14T03:36:33.316Z,1012.88
2023-02-14T03:37:33.301Z,1012.90
2023-02-14T03:38:33.269Z,1012.88
2023-02-14T03:39:33.262Z,1012.85
2023-02-14T03:40:33.520Z,1012.91
2023-02-14T03:41:33.207Z,1012.91
2023-02-14T03:42:33.218Z,1012.93
2023-02-14T03:43:33.180Z,1012.92
2023-02-14T03:44:33.162Z,1012.93
2023-02-14T03:45:33.234Z,1012.99
2023-02-14T03:46:33.162Z,1012.98
2023-02-14T03:47:33.090Z,1012.94
2023-02-14T03:48:33.071Z,1012.91
2023-02-14T03:49:33.052Z,1012.94
2023-02-14T03:50:33.032Z,1012.93
2023-02-14T03:51:33.011Z,1012.91
2023-02-14T03:52:32.997Z,1012.93
2023-02-14T03:53:32.969Z,1012.93
2023-02-14T03:54:32.947Z,1012.92
2023-02-14T03:55:32.926Z,1012.92
2023-02-14T03:56:32.905Z,1012.93
2023-02-14T03:57:32.901Z,1012.93
2023-02-14T03:58:32.869Z,1012.94
2023-02-14T03:59:32.854Z,1012.92
2023-02-14T04:00:32.846Z,1012.93
2023-02-14T04:01:32.853Z,1012.90
2023-02-14T04:02:32.781Z,1012.88
2023-02-14T04:03:32.845Z,1012.91
2023-02-14T04:04:32.749Z,1012.93
2023-02-14T04:05:32.727Z,1012.91
2023-02-14T04:06:32.728Z,1012.94
2023-02-14T04:07:32.683Z,1012.92
2023-02-14T04:08:32.728Z,1012.93
2023-02-14T04:09:32.645Z,1012.92
2023-02-14T04:10:32.621Z,1012.91
2023-02-14T04:11:32.602Z,1012.96
2023-02-14T04:12:38.062Z,1012.95
2023-02-14T04:13:32.572Z,1012.97
2023-02-14T04:14:32.568Z,1013.05
2023-02-14T04:15:32.544Z,1013.02
2023-02-14T04:16:32.519Z,1013.04
2023-02-14T04:17:32.485Z,1013.02
2023-02-14T04:18:32.459Z,1013.02
2023-02-14T04:19:32.440Z,1013.02
2023-02-14T04:20:32.423Z,1013.03
2023-02-14T04:21:32.397Z,1013.03
2023-02-14T04:22:32.378Z,1013.01
2023-02-14T04:23:32.361Z,1013.01
2023-02-14T04:27:39.815Z,1013.05
2023-02-14T04:28:39.657Z,1013.04
2023-02-14T04:29:39.678Z,1013.06
2023-02-14T04:30:39.699Z,1013.05
2023-02-14T04:31:39.929Z,1013.03
2023-02-14T04:32:39.514Z,1013.08
2023-02-14T04:33:39.510Z,1013.05
2023-02-14T04:34:39.479Z,1013.06
2023-02-14T04:35:39.459Z,1013.03
2023-02-14T04:36:39.537Z,1013.02
2023-02-14T04:37:39.412Z,1012.99
2023-02-14T04:38:39.396Z,1012.94
2023-02-14T04:39:39.463Z,1013.04
2023-02-14T04:40:39.360Z,1012.97
2023-02-14T04:41:39.336Z,1012.98
2023-02-14T04:42:39.321Z,1013.00
2023-02-14T04:43:39.309Z,1012.95
2023-02-14T04:44:39.271Z,1012.97
2023-02-14T04:45:39.265Z,1012.94
2023-02-14T04:46:39.321Z,1012.99
2023-02-14T04:47:39.226Z,1013.01
2023-02-14T04:48:39.190Z,1013.05
2023-02-14T06:06:20.365Z,1013.10
2023-02-14T06:07:20.131Z,1013.05
2023-02-14T06:09:25.959Z,1013.08
2023-02-14T06:10:25.097Z,1013.12
2023-02-14T06:12:33.182Z,1013.04
2023-02-14T06:13:33.009Z,1013.10
2023-02-14T06:15:39.051Z,1013.11
2023-02-14T06:16:39.432Z,1013.05
2023-02-14T06:17:39.121Z,1013.07
2023-02-14T06:18:38.946Z,1013.07
2023-02-14T06:19:38.988Z,1013.06
2023-02-14T06:20:39.330Z,1013.09
2023-02-14T06:21:38.885Z,1013.09
2023-02-14T06:22:38.854Z,1013.04
2023-02-14T06:23:38.837Z,1013.06
2023-02-14T06:24:38.827Z,1013.02
2023-02-14T06:25:38.796Z,1013.05
2023-02-14T06:26:38.778Z,1013.04
2023-02-14T06:27:38.757Z,1013.04
2023-02-14T06:28:38.738Z,1013.05
2023-02-14T06:29:38.715Z,1013.08
2023-02-14T06:30:38.921Z,1013.08
2023-02-14T06:31:38.841Z,1013.07
2023-02-14T06:32:38.660Z,1013.11
2023-02-14T06:33:38.665Z,1013.08
2023-02-14T06:34:38.621Z,1013.10
2023-02-14T06:35:38.598Z,1013.11
2023-02-14T06:36:38.580Z,1013.08
2023-02-14T06:37:38.580Z,1013.15
2023-02-14T06:38:38.583Z,1013.09
2023-02-14T06:39:38.522Z,1013.11
2023-02-14T06:40:38.504Z,1013.09
2023-02-14T06:41:38.491Z,1013.12
2023-02-14T06:42:38.470Z,1013.11
2023-02-14T06:43:38.444Z,1013.16
2023-02-14T06:44:38.426Z,1013.11
2023-02-14T06:45:38.406Z,1013.15
2023-02-14T06:46:38.388Z,1013.18
2023-02-14T06:47:38.370Z,1013.14
2023-02-14T06:48:38.353Z,1013.13
2023-02-14T06:49:38.334Z,1013.18
2023-02-14T06:50:38.325Z,1013.17
2023-02-14T06:51:38.294Z,1013.19
2023-02-14T06:52:38.274Z,1013.21
2023-02-14T06:53:38.267Z,1013.21
2023-02-14T06:54:38.233Z,1013.20
2023-02-14T06:55:38.225Z,1013.21
2023-02-14T06:56:38.196Z,1013.27
2023-02-14T06:57:38.174Z,1013.25
2023-02-14T06:58:38.153Z,1013.20
2023-02-14T06:59:38.132Z,1013.17
2023-02-14T07:00:38.115Z,1013.18
2023-02-14T07:01:38.138Z,1013.20
2023-02-14T07:02:38.142Z,1013.18
2023-02-14T07:03:38.065Z,1013.18
2023-02-14T07:04:38.037Z,1013.18
2023-02-14T07:05:38.027Z,1013.18
2023-02-14T07:06:38.383Z,1013.19
2023-02-14T07:07:37.983Z,1013.17
2023-02-14T07:08:37.957Z,1013.17
2023-02-14T07:09:37.974Z,1013.18
2023-02-14T07:10:37.927Z,1013.17
2023-02-14T07:11:37.897Z,1013.12
2023-02-14T07:12:37.880Z,1013.18
2023-02-14T07:13:37.884Z,1013.13
2023-02-14T07:14:37.843Z,1013.20
2023-02-14T07:15:37.838Z,1013.22
2023-02-14T07:16:37.807Z,1013.20
2023-02-14T07:17:37.787Z,1013.20
2023-02-14T07:18:37.782Z,1013.23
2023-02-14T07:19:37.768Z,1013.23
2023-02-14T07:20:37.738Z,1013.22
2023-02-14T07:21:37.710Z,1013.24
2023-02-14T07:22:37.704Z,1013.25
2023-02-14T07:23:37.674Z,1013.27
2023-02-14T07:24:37.652Z,1013.30
2023-02-14T07:25:37.640Z,1013.26
2023-02-14T07:26:37.616Z,1013.32
2023-02-14T07:27:37.601Z,1013.28
2023-02-14T07:28:37.574Z,1013.28
2023-02-14T07:29:37.577Z,1013.21
2023-02-14T07:30:37.534Z,1013.25
2023-02-14T07:31:37.613Z,1013.20
2023-02-14T07:32:37.500Z,1013.18
2023-02-14T07:33:37.481Z,1013.18
2023-02-14T07:34:37.484Z,1013.23
2023-02-14T07:35:37.441Z,1013.22
2023-02-14T07:36:37.426Z,1013.20
2023-02-14T07:37:37.406Z,1013.22
2023-02-14T07:38:37.385Z,1013.22
2023-02-14T07:39:37.367Z,1013.24
2023-02-14T07:40:37.346Z,1013.22
2023-02-14T07:41:37.332Z,1013.22
2023-02-14T07:42:37.306Z,1013.27
2023-02-14T07:43:37.287Z,1013.22
2023-02-14T07:44:37.271Z,1013.17
2023-02-14T07:45:37.252Z,1013.20
2023-02-14T07:46:37.339Z,1013.22
2023-02-14T07:47:37.213Z,1013.18
2023-02-14T07:48:37.196Z,1013.19
2023-02-14T07:49:37.180Z,1013.18
2023-02-14T07:50:37.156Z,1013.17
2023-02-14T07:51:37.150Z,1013.19
2023-02-14T07:52:37.119Z,1013.18
2023-02-14T07:53:37.096Z,1013.16
2023-02-14T07:54:37.080Z,1013.19
2023-02-14T07:55:37.056Z,1013.22
2023-02-14T07:56:37.039Z,1013.22
2023-02-14T07:57:37.032Z,1013.22
2023-02-14T07:58:37.005Z,1013.23
2023-02-14T07:59:36.985Z,1013.24
2023-02-14T08:00:36.964Z,1013.20
2023-02-14T08:01:36.978Z,1013.23
2023-02-14T08:02:36.929Z,1013.22
2023-02-14T08:03:36.907Z,1013.24
2023-02-14T08:04:36.916Z,1013.23
2023-02-14T08:05:36.868Z,1013.19
2023-02-14T08:06:36.851Z,1013.16
2023-02-14T08:07:36.828Z,1013.18
2023-02-14T08:08:36.815Z,1013.20
2023-02-14T08:09:36.814Z,1013.18
2023-02-14T08:10:36.772Z,1013.18
2023-02-14T08:11:36.764Z,1013.21
2023-02-14T08:12:36.731Z,1013.18
2023-02-14T08:13:36.721Z,1013.21
2023-02-14T08:14:36.692Z,1013.19
2023-02-14T08:15:36.675Z,1013.19
2023-02-14T08:16:36.655Z,1013.21
2023-02-14T08:17:36.746Z,1013.17
2023-02-14T08:18:36.636Z,1013.17
2023-02-14T08:19:36.596Z,1013.18
2023-02-14T08:20:36.576Z,1013.15
2023-02-14T08:21:36.561Z,1013.18
2023-02-14T08:22:36.540Z,1013.20
2023-02-14T08:23:36.520Z,1013.21
2023-02-14T08:24:36.501Z,1013.24
2023-02-14T08:25:36.483Z,1013.24
2023-02-14T08:26:36.466Z,1013.25
2023-02-14T08:27:36.452Z,1013.23
2023-02-14T08:28:36.444Z,1013.29
2023-02-14T08:29:36.430Z,1013.27
2023-02-14T08:30:36.436Z,1013.26
2023-02-14T08:31:36.850Z,1013.28
2023-02-14T08:32:36.447Z,1013.27
2023-02-14T08:33:36.339Z,1013.26
2023-02-14T08:34:36.315Z,1013.25
2023-02-14T08:35:36.301Z,1013.25
2023-02-14T08:36:36.321Z,1013.24
2023-02-14T08:37:36.258Z,1013.25
2023-02-14T08:38:36.251Z,1013.26
2023-02-14T08:39:36.223Z,1013.26
2023-02-14T08:40:36.207Z,1013.24
2023-02-14T08:41:36.188Z,1013.24
2023-02-14T08:42:36.183Z,1013.23
2023-02-14T08:43:36.174Z,1013.24
2023-02-14T08:44:36.137Z,1013.29
2023-02-14T08:45:36.141Z,1013.24
2023-02-14T08:46:36.137Z,1013.25
2023-02-14T08:47:36.088Z,1013.26
2023-02-14T08:48:39.132Z,1013.30
2023-02-14T08:49:36.052Z,1013.27
2023-02-14T08:50:36.047Z,1013.36
2023-02-14T08:51:36.002Z,1013.30
2023-02-14T08:52:36.013Z,1013.31
2023-02-14T08:53:35.966Z,1013.31
2023-02-14T08:54:35.956Z,1013.29
2023-02-14T08:55:35.945Z,1013.30
2023-02-14T08:56:35.917Z,1013.31
2023-02-14T08:57:35.895Z,1013.30
2023-02-14T08:58:35.879Z,1013.26
2023-02-14T08:59:35.889Z,1013.29
2023-02-14T09:00:35.878Z,1013.29
2023-02-14T09:01:35.875Z,1013.30
2023-02-14T09:02:35.842Z,1013.31
2023-02-14T09:03:38.273Z,1013.27
2023-02-14T09:04:35.886Z,1013.30
2023-02-14T09:05:35.765Z,1013.30
2023-02-14T09:06:35.732Z,1013.27
2023-02-14T09:07:35.721Z,1013.26
2023-02-14T09:08:35.698Z,1013.29
2023-02-14T09:09:35.709Z,1013.25
2023-02-14T09:10:35.664Z,1013.25
2023-02-14T09:11:35.653Z,1013.26
2023-02-14T09:12:35.630Z,1013.30
2023-02-14T09:13:35.642Z,1013.29
2023-02-14T09:14:35.595Z,1013.26
2023-02-14T09:15:35.576Z,1013.27
2023-02-14T09:16:35.621Z,1013.27
2023-02-14T09:17:35.541Z,1013.28
2023-02-14T09:18:35.524Z,1013.27
2023-02-14T09:19:35.543Z,1013.29
2023-02-14T09:20:35.526Z,1013.31
2023-02-14T09:21:35.502Z,1013.33
2023-02-14T09:22:35.447Z,1013.30
2023-02-14T09:23:35.434Z,1013.27
2023-02-14T09:24:35.420Z,1013.29
2023-02-14T09:25:35.961Z,1013.31
2023-02-14T09:26:35.387Z,1013.25
2023-02-14T09:27:35.365Z,1013.23
2023-02-14T09:28:35.346Z,1013.22
2023-02-14T09:29:35.331Z,1013.24
2023-02-14T09:30:35.413Z,1013.21
2023-02-14T09:31:35.355Z,1013.19
2023-02-14T09:32:35.284Z,1013.22
2023-02-14T09:33:35.267Z,1013.21
2023-02-14T09:34:35.245Z,1013.18
2023-02-14T09:35:35.230Z,1013.17
2023-02-14T09:36:35.219Z,1013.15
2023-02-14T09:37:35.193Z,1013.19
2023-02-14T09:38:35.176Z,1013.22
2023-02-14T09:39:35.166Z,1013.15
2023-02-14T09:40:35.140Z,1013.20
2023-02-14T09:41:35.125Z,1013.16
2023-02-14T09:42:35.108Z,1013.21
2023-02-14T09:43:35.099Z,1013.15
2023-02-14T09:44:35.077Z,1013.11
2023-02-14T09:45:35.132Z,1013.16
2023-02-14T09:46:35.046Z,1013.17
2023-02-14T09:47:35.035Z,1013.15
2023-02-14T09:48:35.009Z,1013.16
2023-02-14T09:49:35.140Z,1013.13
2023-02-14T09:50:34.987Z,1013.18
2023-02-14T09:51:34.968Z,1013.13
2023-02-14T09:52:34.947Z,1013.18
2023-02-14T09:53:34.934Z,1013.11
2023-02-14T09:54:34.923Z,1013.10
2023-02-14T09:55:34.904Z,1013.11
2023-02-14T09:56:45.996Z,1013.10
2023-02-14T09:57:34.860Z,1013.14
2023-02-14T09:58:34.858Z,1013.13
2023-02-14T09:59:34.873Z,1013.09
2023-02-14T10:00:34.809Z,1013.07
2023-02-14T10:01:34.931Z,1013.11
2023-02-14T10:02:34.888Z,1013.07
2023-02-14T10:03:34.764Z,1013.04
2023-02-14T10:04:34.752Z,1013.08
2023-02-14T10:05:34.733Z,1013.10
2023-02-14T10:06:34.707Z,1013.14
2023-02-14T10:07:34.703Z,1013.09
2023-02-14T10:08:34.682Z,1013.12
2023-02-14T10:09:34.664Z,1013.16
2023-02-14T10:10:34.655Z,1013.14
2023-02-14T10:11:34.629Z,1013.12
2023-02-14T10:12:34.617Z,1013.12
2023-02-14T10:13:34.597Z,1013.13
2023-02-14T10:14:34.588Z,1013.10
2023-02-14T10:15:34.560Z,1013.12
2023-02-14T10:16:34.576Z,1013.10
2023-02-14T10:17:34.549Z,1013.16
2023-02-14T10:18:34.516Z,1013.13
2023-02-14T10:19:34.507Z,1013.19
2023-02-14T10:20:34.488Z,1013.19
2023-02-14T10:21:34.498Z,1013.14
2023-02-14T10:22:34.450Z,1013.23
2023-02-14T10:23:34.438Z,1013.22
2023-02-14T10:24:34.429Z,1013.21
2023-02-14T10:25:34.418Z,1013.19
2023-02-14T10:26:34.396Z,1013.19
2023-02-14T10:27:34.379Z,1013.21
2023-02-14T10:28:34.364Z,1013.17
2023-02-14T10:29:34.349Z,1013.18
2023-02-14T10:30:34.427Z,1013.20
2023-02-14T10:31:34.473Z,1013.13
2023-02-14T10:32:34.302Z,1013.14
2023-02-14T10:33:34.318Z,1013.18
2023-02-14T10:34:34.294Z,1013.15
2023-02-14T10:35:34.262Z,1013.20
2023-02-14T10:36:34.245Z,1013.18
2023-02-14T10:37:34.237Z,1013.14
2023-02-14T10:38:34.223Z,1013.12
2023-02-14T10:39:34.212Z,1013.11
2023-02-14T10:40:34.196Z,1013.08
2023-02-14T10:41:34.182Z,1013.10
2023-02-14T10:42:34.166Z,1013.11
2023-02-14T10:43:34.158Z,1013.16
2023-02-14T10:44:34.139Z,1013.16
2023-02-14T10:45:34.178Z,1013.09
2023-02-14T10:46:34.130Z,1013.10
2023-02-14T10:47:34.123Z,1013.07
2023-02-14T10:48:34.088Z,1013.06
2023-02-14T10:49:34.076Z,1013.08
2023-02-14T10:50:34.061Z,1013.09
2023-02-14T10:51:34.300Z,1013.11
2023-02-14T10:52:34.035Z,1013.05
2023-02-14T10:53:34.026Z,1013.01
2023-02-14T10:54:34.019Z,1013.00
2023-02-14T10:55:34.018Z,1012.99
2023-02-14T10:56:34.000Z,1013.03
2023-02-14T10:57:33.982Z,1013.02
2023-02-14T10:58:33.964Z,1013.01
2023-02-14T10:59:33.965Z,1013.00
2023-02-14T11:00:33.948Z,1013.00
2023-02-14T11:01:33.976Z,1013.02
2023-02-14T11:02:33.927Z,1013.05
2023-02-14T11:03:33.969Z,1013.04
2023-02-14T11:04:33.912Z,1012.95
2023-02-14T11:05:33.902Z,1012.93
2023-02-14T11:06:33.898Z,1012.93
2023-02-14T11:07:33.898Z,1012.91
2023-02-14T11:08:33.905Z,1012.86
2023-02-14T11:09:33.879Z,1012.85
2023-02-14T11:10:33.869Z,1012.81
2023-02-14T11:11:33.858Z,1012.86
2023-02-14T11:12:33.856Z,1012.81
2023-02-14T11:13:33.851Z,1012.76
2023-02-14T11:14:33.844Z,1012.77
2023-02-14T11:15:33.859Z,1012.73
2023-02-14T11:16:33.884Z,1012.74
2023-02-14T11:17:33.829Z,1012.75
2023-02-14T11:18:33.818Z,1012.75
2023-02-14T11:19:36.096Z,1012.70
2023-02-14T11:20:33.812Z,1012.68
2023-02-14T11:21:33.800Z,1012.69
2023-02-14T11:22:33.797Z,1012.68
2023-02-14T11:23:33.797Z,1012.69
2023-02-14T11:24:33.819Z,1012.66
2023-02-14T11:25:33.787Z,1012.67
2023-02-14T11:26:33.780Z,1012.66
2023-02-14T11:27:33.793Z,1012.60
2023-02-14T11:28:33.766Z,1012.61
2023-02-14T11:29:33.767Z,1012.56
2023-02-14T11:30:33.788Z,1012.54
2023-02-14T11:31:33.946Z,1012.55
2023-02-14T11:32:33.769Z,1012.53
2023-02-14T11:33:33.744Z,1012.53
2023-02-14T11:34:33.746Z,1012.52
2023-02-14T11:35:33.750Z,1012.53
2023-02-14T11:36:33.746Z,1012.52
2023-02-14T11:37:33.729Z,1012.52
2023-02-14T11:38:33.726Z,1012.51
2023-02-14T11:39:33.721Z,1012.50
2023-02-14T11:40:33.725Z,1012.51
2023-02-14T11:41:33.722Z,1012.47
2023-02-14T11:42:33.714Z,1012.44
2023-02-14T11:43:33.710Z,1012.45
2023-02-14T11:44:33.709Z,1012.42
2023-02-14T11:45:33.701Z,1012.44
2023-02-14T11:46:36.146Z,1012.40
2023-02-14T11:47:33.703Z,1012.34
2023-02-14T11:48:38.986Z,1012.34
2023-02-14T11:49:33.679Z,1012.34
2023-02-14T11:50:33.685Z,1012.29
2023-02-14T11:51:33.684Z,1012.35
2023-02-14T11:52:33.673Z,1012.31
2023-02-14T11:53:33.662Z,1012.30
2023-02-14T11:54:33.658Z,1012.27
2023-02-14T11:55:33.662Z,1012.26
2023-02-14T11:56:33.652Z,1012.26
2023-02-14T11:57:33.648Z,1012.23
2023-02-14T11:58:33.641Z,1012.25
2023-02-14T11:59:33.648Z,1012.17
2023-02-14T12:00:33.645Z,1012.22
2023-02-14T12:01:33.626Z,1012.19
2023-02-14T12:02:33.657Z,1012.19
2023-02-14T12:03:33.926Z,1012.15
2023-02-14T12:04:38.216Z,1012.18
2023-02-14T12:05:33.610Z,1012.14
2023-02-14T12:06:33.608Z,1012.13
2023-02-14T12:07:33.606Z,1012.14
2023-02-14T12:08:33.609Z,1012.11
2023-02-14T12:09:33.601Z,1012.04
2023-02-14T12:10:33.589Z,1012.08
2023-02-14T12:11:33.578Z,1012.09
2023-02-14T12:12:33.574Z,1012.14
2023-02-14T12:13:33.584Z,1012.10
2023-02-14T12:14:33.573Z,1012.05
2023-02-14T12:15:33.587Z,1012.01
2023-02-14T12:16:33.558Z,1012.05
2023-02-14T12:17:33.556Z,1012.05
2023-02-14T12:18:33.545Z,1012.05
2023-02-14T12:19:33.551Z,1012.01
2023-02-14T12:20:33.533Z,1012.01
2023-02-14T12:21:33.523Z,1011.93
2023-02-14T12:22:33.517Z,1011.97
2023-02-14T12:23:33.514Z,1011.98
2023-02-14T12:24:33.508Z,1011.96
2023-02-14T12:25:33.502Z,1011.94
2023-02-14T12:26:33.490Z,1011.87
2023-02-14T12:27:35.560Z,1011.89
2023-02-14T12:28:33.480Z,1011.85
2023-02-14T12:29:33.492Z,1011.87
2023-02-14T12:30:33.458Z,1011.83
2023-02-14T12:31:33.645Z,1011.85
2023-02-14T12:32:33.445Z,1011.75
2023-02-14T12:33:33.430Z,1011.77
2023-02-14T12:34:33.440Z,1011.81
2023-02-14T12:35:33.414Z,1011.85
2023-02-14T12:36:33.404Z,1011.78
2023-02-14T12:37:33.394Z,1011.73
2023-02-14T12:38:33.386Z,1011.72
2023-02-14T12:39:33.379Z,1011.74
2023-02-14T12:40:33.367Z,1011.70
2023-02-14T12:41:33.363Z,1011.66
2023-02-14T12:42:33.350Z,1011.63
2023-02-14T12:43:33.341Z,1011.62
2023-02-14T12:44:33.335Z,1011.60
2023-02-14T12:45:33.318Z,1011.60
2023-02-14T12:46:33.336Z,1011.57
2023-02-14T12:47:33.297Z,1011.61
2023-02-14T12:48:33.296Z,1011.54
2023-02-14T12:49:33.280Z,1011.53
2023-02-14T12:50:33.270Z,1011.53
2023-02-14T12:51:33.264Z,1011.55
2023-02-14T12:52:33.255Z,1011.48
2023-02-14T12:53:33.242Z,1011.48
2023-02-14T12:54:33.229Z,1011.50
2023-02-14T12:55:33.220Z,1011.52
2023-02-14T12:56:33.213Z,1011.51
2023-02-14T12:57:33.207Z,1011.48
2023-02-14T12:58:33.190Z,1011.44
2023-02-14T12:59:33.185Z,1011.50
2023-02-14T13:00:33.187Z,1011.47
2023-02-14T13:01:39.080Z,1011.44
2023-02-14T13:02:33.260Z,1011.45
2023-02-14T13:03:33.142Z,1011.45
2023-02-14T13:04:33.133Z,1011.45
2023-02-14T13:05:33.112Z,1011.39
2023-02-14T13:06:33.100Z,1011.44
2023-02-14T13:07:33.097Z,1011.40
2023-02-14T13:08:33.101Z,1011.34
2023-02-14T13:09:33.584Z,1011.34
2023-02-14T13:10:33.057Z,1011.35
2023-02-14T13:11:33.044Z,1011.32
2023-02-14T13:12:33.061Z,1011.31
2023-02-14T13:13:33.300Z,1011.35
2023-02-14T13:14:33.008Z,1011.32
2023-02-14T13:15:33.009Z,1011.31
2023-02-14T13:16:33.522Z,1011.29
2023-02-14T13:17:32.972Z,1011.27
2023-02-14T13:18:32.963Z,1011.22
2023-02-14T13:19:33.210Z,1011.25
2023-02-14T13:20:32.945Z,1011.19
2023-02-14T13:21:32.926Z,1011.24
2023-02-14T13:22:32.912Z,1011.19
2023-02-14T13:23:32.899Z,1011.21
2023-02-14T13:24:32.898Z,1011.21
2023-02-14T13:25:32.883Z,1011.17
2023-02-14T13:26:32.872Z,1011.17
2023-02-14T13:27:32.871Z,1011.13
2023-02-14T13:28:32.836Z,1011.13